sensor_id;sensor_type;location;lat;lon;timestamp;temperature;humidity
3348;DHT22;1687;49.540;8.574;2023-04-06T00:01:38;6.40;41.60
3348;DHT22;1687;49.540;8.574;2023-04-06T00:04:04;6.40;41.60
3348;DHT22;1687;49.540;8.574;2023-04-06T00:06:30;6.40;41.70
3348;DHT22;1687;49.540;8.574;2023-04-06T00:08:56;6.50;41.80
3348;DHT22;1687;49.540;8.574;2023-04-06T00:11:22;6.40;41.80
3348;DHT22;1687;49.540;8.574;2023-04-06T00:13:47;6.40;41.90
3348;DHT22;1687;49.540;8.574;2023-04-06T00:16:13;6.40;41.90
3348;DHT22;1687;49.540;8.574;2023-04-06T00:18:39;6.40;42.00
3348;DHT22;1687;49.540;8.574;2023-04-06T00:21:05;6.50;42.20
3348;DHT22;1687;49.540;8.574;2023-04-06T00:23:31;6.40;42.00
3348;DHT22;1687;49.540;8.574;2023-04-06T00:25:56;6.20;41.80
3348;DHT22;1687;49.540;8.574;2023-04-06T00:28:22;6.10;42.10
3348;DHT22;1687;49.540;8.574;2023-04-06T00:30:51;6.10;42.40
3348;DHT22;1687;49.540;8.574;2023-04-06T00:33:18;6.10;42.50
3348;DHT22;1687;49.540;8.574;2023-04-06T00:35:45;6.00;42.50
3348;DHT22;1687;49.540;8.574;2023-04-06T00:38:11;6.00;42.40
3348;DHT22;1687;49.540;8.574;2023-04-06T00:40:37;5.80;42.30
3348;DHT22;1687;49.540;8.574;2023-04-06T00:43:07;5.70;42.40
3348;DHT22;1687;49.540;8.574;2023-04-06T00:45:35;5.50;42.30
3348;DHT22;1687;49.540;8.574;2023-04-06T00:48:01;5.30;42.60
3348;DHT22;1687;49.540;8.574;2023-04-06T00:50:30;5.40;43.00
3348;DHT22;1687;49.540;8.574;2023-04-06T00:52:55;5.40;43.20
3348;DHT22;1687;49.540;8.574;2023-04-06T00:55:21;5.50;43.20
3348;DHT22;1687;49.540;8.574;2023-04-06T00:57:47;5.50;43.30
3348;DHT22;1687;49.540;8.574;2023-04-06T01:00:13;5.40;43.20
3348;DHT22;1687;49.540;8.574;2023-04-06T01:02:39;5.20;43.10
3348;DHT22;1687;49.540;8.574;2023-04-06T01:05:06;5.20;43.30
3348;DHT22;1687;49.540;8.574;2023-04-06T01:07:32;5.20;43.50
3348;DHT22;1687;49.540;8.574;2023-04-06T01:09:58;5.20;43.60
3348;DHT22;1687;49.540;8.574;2023-04-06T01:12:24;5.20;43.60
3348;DHT22;1687;49.540;8.574;2023-04-06T01:14:50;5.10;43.50
3348;DHT22;1687;49.540;8.574;2023-04-06T01:17:15;5.10;43.60
3348;DHT22;1687;49.540;8.574;2023-04-06T01:19:41;5.00;43.60
3348;DHT22;1687;49.540;8.574;2023-04-06T01:22:07;4.90;43.70
3348;DHT22;1687;49.540;8.574;2023-04-06T01:24:33;4.90;43.90
3348;DHT22;1687;49.540;8.574;2023-04-06T01:26:59;4.90;44.00
3348;DHT22;1687;49.540;8.574;2023-04-06T01:29:25;4.90;44.00
3348;DHT22;1687;49.540;8.574;2023-04-06T01:31:51;4.90;44.20
3348;DHT22;1687;49.540;8.574;2023-04-06T01:34:17;4.80;44.10
3348;DHT22;1687;49.540;8.574;2023-04-06T01:36:43;4.90;44.30
3348;DHT22;1687;49.540;8.574;2023-04-06T01:39:09;4.80;44.30
3348;DHT22;1687;49.540;8.574;2023-04-06T01:41:35;4.90;44.50
3348;DHT22;1687;49.540;8.574;2023-04-06T01:44:01;4.90;44.50
3348;DHT22;1687;49.540;8.574;2023-04-06T01:46:27;4.90;44.60
3348;DHT22;1687;49.540;8.574;2023-04-06T01:48:53;4.90;44.60
3348;DHT22;1687;49.540;8.574;2023-04-06T01:51:19;4.90;44.60
3348;DHT22;1687;49.540;8.574;2023-04-06T01:53:44;4.90;44.70
3348;DHT22;1687;49.540;8.574;2023-04-06T01:56:10;4.90;44.80
3348;DHT22;1687;49.540;8.574;2023-04-06T01:58:36;4.90;44.80
3348;DHT22;1687;49.540;8.574;2023-04-06T02:01:01;4.90;44.90
3348;DHT22;1687;49.540;8.574;2023-04-06T02:03:27;4.90;45.00
3348;DHT22;1687;49.540;8.574;2023-04-06T02:05:53;4.90;45.10
3348;DHT22;1687;49.540;8.574;2023-04-06T02:08:18;5.00;45.30
3348;DHT22;1687;49.540;8.574;2023-04-06T02:10:44;5.00;45.20
3348;DHT22;1687;49.540;8.574;2023-04-06T02:13:10;5.00;45.20
3348;DHT22;1687;49.540;8.574;2023-04-06T02:15:35;4.90;45.10
3348;DHT22;1687;49.540;8.574;2023-04-06T02:18:01;4.90;45.20
3348;DHT22;1687;49.540;8.574;2023-04-06T02:20:27;4.90;45.30
3348;DHT22;1687;49.540;8.574;2023-04-06T02:22:52;4.90;45.30
3348;DHT22;1687;49.540;8.574;2023-04-06T02:25:18;4.90;45.40
3348;DHT22;1687;49.540;8.574;2023-04-06T02:27:44;4.80;45.40
3348;DHT22;1687;49.540;8.574;2023-04-06T02:30:10;4.80;45.40
3348;DHT22;1687;49.540;8.574;2023-04-06T02:32:36;4.60;45.10
3348;DHT22;1687;49.540;8.574;2023-04-06T02:35:01;4.40;45.20
3348;DHT22;1687;49.540;8.574;2023-04-06T02:37:27;4.40;45.70
3348;DHT22;1687;49.540;8.574;2023-04-06T02:39:53;4.50;45.80
3348;DHT22;1687;49.540;8.574;2023-04-06T02:42:19;4.40;45.60
3348;DHT22;1687;49.540;8.574;2023-04-06T02:44:44;4.20;45.50
3348;DHT22;1687;49.540;8.574;2023-04-06T02:47:10;4.20;45.80
3348;DHT22;1687;49.540;8.574;2023-04-06T02:49:36;4.10;45.80
3348;DHT22;1687;49.540;8.574;2023-04-06T02:52:02;3.90;45.50
3348;DHT22;1687;49.540;8.574;2023-04-06T02:54:28;3.90;46.00
3348;DHT22;1687;49.540;8.574;2023-04-06T02:56:54;3.90;46.10
3348;DHT22;1687;49.540;8.574;2023-04-06T02:59:19;3.90;46.20
3348;DHT22;1687;49.540;8.574;2023-04-06T03:01:45;3.90;46.30
3348;DHT22;1687;49.540;8.574;2023-04-06T03:04:11;3.90;46.30
3348;DHT22;1687;49.540;8.574;2023-04-06T03:06:37;3.90;46.30
3348;DHT22;1687;49.540;8.574;2023-04-06T03:09:03;3.90;46.40
3348;DHT22;1687;49.540;8.574;2023-04-06T03:11:28;4.00;46.60
3348;DHT22;1687;49.540;8.574;2023-04-06T03:13:54;4.00;46.60
3348;DHT22;1687;49.540;8.574;2023-04-06T03:16:20;4.00;46.60
3348;DHT22;1687;49.540;8.574;2023-04-06T03:18:46;4.10;46.70
3348;DHT22;1687;49.540;8.574;2023-04-06T03:21:12;4.10;46.70
3348;DHT22;1687;49.540;8.574;2023-04-06T03:23:40;4.10;46.70
3348;DHT22;1687;49.540;8.574;2023-04-06T03:26:06;4.10;46.80
3348;DHT22;1687;49.540;8.574;2023-04-06T03:28:32;4.00;46.70
3348;DHT22;1687;49.540;8.574;2023-04-06T03:30:58;4.00;46.80
3348;DHT22;1687;49.540;8.574;2023-04-06T03:33:23;4.00;46.90
3348;DHT22;1687;49.540;8.574;2023-04-06T03:35:52;4.00;46.90
3348;DHT22;1687;49.540;8.574;2023-04-06T03:38:18;4.00;47.00
3348;DHT22;1687;49.540;8.574;2023-04-06T03:40:44;4.00;47.00
3348;DHT22;1687;49.540;8.574;2023-04-06T03:43:10;4.00;47.10
3348;DHT22;1687;49.540;8.574;2023-04-06T03:45:35;4.00;47.20
3348;DHT22;1687;49.540;8.574;2023-04-06T03:48:01;4.00;47.20
3348;DHT22;1687;49.540;8.574;2023-04-06T03:50:27;4.00;47.30
3348;DHT22;1687;49.540;8.574;2023-04-06T03:52:52;4.10;47.50
3348;DHT22;1687;49.540;8.574;2023-04-06T03:55:18;4.10;47.40
3348;DHT22;1687;49.540;8.574;2023-04-06T03:57:44;4.10;47.50
3348;DHT22;1687;49.540;8.574;2023-04-06T04:00:10;4.10;47.50
3348;DHT22;1687;49.540;8.574;2023-04-06T04:02:37;4.10;47.50
3348;DHT22;1687;49.540;8.574;2023-04-06T04:05:03;4.10;47.50
3348;DHT22;1687;49.540;8.574;2023-04-06T04:07:28;4.10;47.50
3348;DHT22;1687;49.540;8.574;2023-04-06T04:09:54;4.20;47.80
3348;DHT22;1687;49.540;8.574;2023-04-06T04:12:20;4.20;47.70
3348;DHT22;1687;49.540;8.574;2023-04-06T04:14:45;4.10;47.70
3348;DHT22;1687;49.540;8.574;2023-04-06T04:17:11;4.10;47.60
3348;DHT22;1687;49.540;8.574;2023-04-06T04:19:37;4.00;47.70
3348;DHT22;1687;49.540;8.574;2023-04-06T04:22:02;4.00;47.80
3348;DHT22;1687;49.540;8.574;2023-04-06T04:24:30;4.00;47.90
3348;DHT22;1687;49.540;8.574;2023-04-06T04:26:56;4.00;48.00
3348;DHT22;1687;49.540;8.574;2023-04-06T04:29:22;4.10;48.10
3348;DHT22;1687;49.540;8.574;2023-04-06T04:31:51;4.10;48.10
3348;DHT22;1687;49.540;8.574;2023-04-06T04:34:18;4.10;48.10
3348;DHT22;1687;49.540;8.574;2023-04-06T04:36:49;4.20;48.30
3348;DHT22;1687;49.540;8.574;2023-04-06T04:39:14;4.20;48.20
3348;DHT22;1687;49.540;8.574;2023-04-06T04:41:40;4.30;48.40
3348;DHT22;1687;49.540;8.574;2023-04-06T04:44:06;4.30;48.30
3348;DHT22;1687;49.540;8.574;2023-04-06T04:46:31;4.30;48.30
3348;DHT22;1687;49.540;8.574;2023-04-06T04:48:57;4.30;48.30
3348;DHT22;1687;49.540;8.574;2023-04-06T04:51:23;4.30;48.40
3348;DHT22;1687;49.540;8.574;2023-04-06T04:53:49;4.30;48.50
3348;DHT22;1687;49.540;8.574;2023-04-06T04:56:15;4.30;48.50
3348;DHT22;1687;49.540;8.574;2023-04-06T04:58:41;4.30;48.60
3348;DHT22;1687;49.540;8.574;2023-04-06T05:01:08;4.30;48.60
3348;DHT22;1687;49.540;8.574;2023-04-06T05:03:34;4.30;48.60
3348;DHT22;1687;49.540;8.574;2023-04-06T05:06:01;4.40;48.80
3348;DHT22;1687;49.540;8.574;2023-04-06T05:08:27;4.40;48.70
3348;DHT22;1687;49.540;8.574;2023-04-06T05:10:52;4.40;48.70
3348;DHT22;1687;49.540;8.574;2023-04-06T05:13:18;4.30;48.60
3348;DHT22;1687;49.540;8.574;2023-04-06T05:15:44;4.20;48.60
3348;DHT22;1687;49.540;8.574;2023-04-06T05:18:10;4.20;48.60
3348;DHT22;1687;49.540;8.574;2023-04-06T05:20:36;4.20;48.90
3348;DHT22;1687;49.540;8.574;2023-04-06T05:23:02;4.30;49.00
3348;DHT22;1687;49.540;8.574;2023-04-06T05:25:28;4.30;49.00
3348;DHT22;1687;49.540;8.574;2023-04-06T05:27:54;4.30;49.00
3348;DHT22;1687;49.540;8.574;2023-04-06T05:30:20;4.30;48.90
3348;DHT22;1687;49.540;8.574;2023-04-06T05:32:46;4.30;49.10
3348;DHT22;1687;49.540;8.574;2023-04-06T05:35:12;4.30;49.00
3348;DHT22;1687;49.540;8.574;2023-04-06T05:37:39;4.40;49.20
3348;DHT22;1687;49.540;8.574;2023-04-06T05:40:05;4.40;49.10
3348;DHT22;1687;49.540;8.574;2023-04-06T05:42:41;4.40;49.30
3348;DHT22;1687;49.540;8.574;2023-04-06T05:45:08;4.50;49.30
3348;DHT22;1687;49.540;8.574;2023-04-06T05:47:35;4.50;49.20
3348;DHT22;1687;49.540;8.574;2023-04-06T05:50:01;4.50;49.20
3348;DHT22;1687;49.540;8.574;2023-04-06T05:52:26;4.50;49.30
3348;DHT22;1687;49.540;8.574;2023-04-06T05:54:52;4.50;49.30
3348;DHT22;1687;49.540;8.574;2023-04-06T05:57:18;4.50;49.30
3348;DHT22;1687;49.540;8.574;2023-04-06T05:59:43;4.50;49.40
3348;DHT22;1687;49.540;8.574;2023-04-06T06:02:09;4.50;49.40
3348;DHT22;1687;49.540;8.574;2023-04-06T06:04:35;4.50;49.60
3348;DHT22;1687;49.540;8.574;2023-04-06T06:07:00;4.60;49.70
3348;DHT22;1687;49.540;8.574;2023-04-06T06:09:26;4.60;49.70
3348;DHT22;1687;49.540;8.574;2023-04-06T06:11:52;4.70;49.80
3348;DHT22;1687;49.540;8.574;2023-04-06T06:14:17;4.60;49.50
3348;DHT22;1687;49.540;8.574;2023-04-06T06:16:43;4.60;49.70
3348;DHT22;1687;49.540;8.574;2023-04-06T06:19:09;4.70;50.00
3348;DHT22;1687;49.540;8.574;2023-04-06T06:21:34;4.90;50.10
3348;DHT22;1687;49.540;8.574;2023-04-06T06:24:01;5.00;50.00
3348;DHT22;1687;49.540;8.574;2023-04-06T06:26:27;5.00;50.10
3348;DHT22;1687;49.540;8.574;2023-04-06T06:28:52;5.00;49.90
3348;DHT22;1687;49.540;8.574;2023-04-06T06:31:18;5.00;50.00
3348;DHT22;1687;49.540;8.574;2023-04-06T06:33:48;5.10;50.30
3348;DHT22;1687;49.540;8.574;2023-04-06T06:36:17;5.30;50.40
3348;DHT22;1687;49.540;8.574;2023-04-06T06:38:43;5.30;50.30
3348;DHT22;1687;49.540;8.574;2023-04-06T06:41:09;5.40;50.30
3348;DHT22;1687;49.540;8.574;2023-04-06T06:43:35;5.50;50.50
3348;DHT22;1687;49.540;8.574;2023-04-06T06:46:01;5.50;50.30
3348;DHT22;1687;49.540;8.574;2023-04-06T06:48:26;5.50;50.30
3348;DHT22;1687;49.540;8.574;2023-04-06T06:50:52;5.40;50.40
3348;DHT22;1687;49.540;8.574;2023-04-06T06:53:18;5.50;50.60
3348;DHT22;1687;49.540;8.574;2023-04-06T06:55:44;5.50;50.60
3348;DHT22;1687;49.540;8.574;2023-04-06T06:58:09;5.60;50.70
3348;DHT22;1687;49.540;8.574;2023-04-06T07:00:35;5.60;50.60
3348;DHT22;1687;49.540;8.574;2023-04-06T07:03:01;5.80;50.80
3348;DHT22;1687;49.540;8.574;2023-04-06T07:05:27;5.90;51.00
3348;DHT22;1687;49.540;8.574;2023-04-06T07:07:53;6.00;50.90
3348;DHT22;1687;49.540;8.574;2023-04-06T07:10:19;6.10;51.00
3348;DHT22;1687;49.540;8.574;2023-04-06T07:12:45;6.10;51.00
3348;DHT22;1687;49.540;8.574;2023-04-06T07:15:11;6.30;51.20
3348;DHT22;1687;49.540;8.574;2023-04-06T07:17:37;6.40;51.30
3348;DHT22;1687;49.540;8.574;2023-04-06T07:20:03;6.50;51.30
3348;DHT22;1687;49.540;8.574;2023-04-06T07:22:29;6.70;51.40
3348;DHT22;1687;49.540;8.574;2023-04-06T07:24:56;6.70;51.30
3348;DHT22;1687;49.540;8.574;2023-04-06T07:27:21;6.90;51.40
3348;DHT22;1687;49.540;8.574;2023-04-06T07:29:47;7.00;51.40
3348;DHT22;1687;49.540;8.574;2023-04-06T07:32:13;7.10;51.40
3348;DHT22;1687;49.540;8.574;2023-04-06T07:34:39;7.30;51.30
3348;DHT22;1687;49.540;8.574;2023-04-06T07:37:04;7.40;51.30
3348;DHT22;1687;49.540;8.574;2023-04-06T07:39:30;7.40;51.20
3348;DHT22;1687;49.540;8.574;2023-04-06T07:41:56;7.40;51.00
3348;DHT22;1687;49.540;8.574;2023-04-06T07:44:22;7.40;51.00
3348;DHT22;1687;49.540;8.574;2023-04-06T07:46:47;7.40;50.80
3348;DHT22;1687;49.540;8.574;2023-04-06T07:49:13;7.40;50.80
3348;DHT22;1687;49.540;8.574;2023-04-06T07:51:39;7.50;50.80
3348;DHT22;1687;49.540;8.574;2023-04-06T07:54:05;7.60;50.90
3348;DHT22;1687;49.540;8.574;2023-04-06T07:56:31;7.80;50.90
3348;DHT22;1687;49.540;8.574;2023-04-06T07:58:57;7.90;50.70
3348;DHT22;1687;49.540;8.574;2023-04-06T08:01:24;7.90;50.60
3348;DHT22;1687;49.540;8.574;2023-04-06T08:03:50;8.10;50.70
3348;DHT22;1687;49.540;8.574;2023-04-06T08:06:16;8.20;50.70
3348;DHT22;1687;49.540;8.574;2023-04-06T08:08:42;8.40;50.60
3348;DHT22;1687;49.540;8.574;2023-04-06T08:11:08;8.40;50.50
3348;DHT22;1687;49.540;8.574;2023-04-06T08:13:36;8.60;50.70
3348;DHT22;1687;49.540;8.574;2023-04-06T08:16:01;8.70;50.60
3348;DHT22;1687;49.540;8.574;2023-04-06T08:18:27;8.90;50.50
3348;DHT22;1687;49.540;8.574;2023-04-06T08:20:55;8.90;50.40
3348;DHT22;1687;49.540;8.574;2023-04-06T08:23:22;9.00;50.20
3348;DHT22;1687;49.540;8.574;2023-04-06T08:25:47;9.00;50.10
3348;DHT22;1687;49.540;8.574;2023-04-06T08:28:13;9.00;50.10
3348;DHT22;1687;49.540;8.574;2023-04-06T08:30:42;9.00;50.00
3348;DHT22;1687;49.540;8.574;2023-04-06T08:33:08;9.10;50.70
3348;DHT22;1687;49.540;8.574;2023-04-06T08:35:34;9.20;49.90
3348;DHT22;1687;49.540;8.574;2023-04-06T08:38:00;9.20;49.90
3348;DHT22;1687;49.540;8.574;2023-04-06T08:40:26;9.40;50.10
3348;DHT22;1687;49.540;8.574;2023-04-06T08:42:55;9.50;50.00
3348;DHT22;1687;49.540;8.574;2023-04-06T08:45:22;9.60;49.90
3348;DHT22;1687;49.540;8.574;2023-04-06T08:47:50;9.80;49.90
3348;DHT22;1687;49.540;8.574;2023-04-06T08:50:17;9.90;49.70
3348;DHT22;1687;49.540;8.574;2023-04-06T08:52:47;10.00;48.90
3348;DHT22;1687;49.540;8.574;2023-04-06T08:55:14;10.10;48.70
3348;DHT22;1687;49.540;8.574;2023-04-06T08:57:41;10.10;48.50
3348;DHT22;1687;49.540;8.574;2023-04-06T09:00:10;10.20;48.50
3348;DHT22;1687;49.540;8.574;2023-04-06T09:02:39;10.40;48.50
3348;DHT22;1687;49.540;8.574;2023-04-06T09:05:08;10.40;48.10
3348;DHT22;1687;49.540;8.574;2023-04-06T09:07:36;10.50;48.30
3348;DHT22;1687;49.540;8.574;2023-04-06T09:10:03;10.70;48.30
3348;DHT22;1687;49.540;8.574;2023-04-06T09:12:31;10.90;48.40
3348;DHT22;1687;49.540;8.574;2023-04-06T09:14:57;11.10;48.20
3348;DHT22;1687;49.540;8.574;2023-04-06T09:17:28;11.10;48.00
3348;DHT22;1687;49.540;8.574;2023-04-06T09:19:56;11.20;48.10
3348;DHT22;1687;49.540;8.574;2023-04-06T09:22:22;11.20;47.90
3348;DHT22;1687;49.540;8.574;2023-04-06T09:24:51;11.30;48.00
3348;DHT22;1687;49.540;8.574;2023-04-06T09:27:19;11.40;47.80
3348;DHT22;1687;49.540;8.574;2023-04-06T09:30:03;11.50;47.80
3348;DHT22;1687;49.540;8.574;2023-04-06T09:32:51;11.70;48.00
3348;DHT22;1687;49.540;8.574;2023-04-06T09:35:19;12.00;48.00
3348;DHT22;1687;49.540;8.574;2023-04-06T09:37:46;12.20;48.00
3348;DHT22;1687;49.540;8.574;2023-04-06T09:40:13;12.40;47.80
3348;DHT22;1687;49.540;8.574;2023-04-06T09:42:41;12.30;47.40
3348;DHT22;1687;49.540;8.574;2023-04-06T09:45:08;12.30;47.50
3348;DHT22;1687;49.540;8.574;2023-04-06T09:47:36;12.40;47.50
3348;DHT22;1687;49.540;8.574;2023-04-06T09:50:03;12.50;47.40
3348;DHT22;1687;49.540;8.574;2023-04-06T09:52:35;12.70;47.50
3348;DHT22;1687;49.540;8.574;2023-04-06T09:55:04;12.70;47.20
3348;DHT22;1687;49.540;8.574;2023-04-06T09:57:55;12.80;47.30
3348;DHT22;1687;49.540;8.574;2023-04-06T10:00:25;12.80;46.90
3348;DHT22;1687;49.540;8.574;2023-04-06T10:03:04;12.90;47.00
3348;DHT22;1687;49.540;8.574;2023-04-06T10:05:44;12.80;46.60
3348;DHT22;1687;49.540;8.574;2023-04-06T10:08:18;12.90;46.70
3348;DHT22;1687;49.540;8.574;2023-04-06T10:10:44;12.90;46.60
3348;DHT22;1687;49.540;8.574;2023-04-06T10:13:11;12.90;46.60
3348;DHT22;1687;49.540;8.574;2023-04-06T10:15:38;13.00;46.60
3348;DHT22;1687;49.540;8.574;2023-04-06T10:18:05;13.10;46.50
3348;DHT22;1687;49.540;8.574;2023-04-06T10:20:43;13.10;46.10
3348;DHT22;1687;49.540;8.574;2023-04-06T10:23:22;13.20;46.20
3348;DHT22;1687;49.540;8.574;2023-04-06T10:25:58;13.40;46.20
3348;DHT22;1687;49.540;8.574;2023-04-06T10:28:26;13.60;46.10
3348;DHT22;1687;49.540;8.574;2023-04-06T10:31:01;13.80;46.10
3348;DHT22;1687;49.540;8.574;2023-04-06T10:33:28;13.90;45.70
3348;DHT22;1687;49.540;8.574;2023-04-06T10:35:54;14.00;45.70
3348;DHT22;1687;49.540;8.574;2023-04-06T10:38:21;14.20;45.60
3348;DHT22;1687;49.540;8.574;2023-04-06T10:40:48;14.30;45.30
3348;DHT22;1687;49.540;8.574;2023-04-06T10:43:19;14.30;45.00
3348;DHT22;1687;49.540;8.574;2023-04-06T10:45:55;14.30;44.80
3348;DHT22;1687;49.540;8.574;2023-04-06T10:48:21;14.30;44.60
3348;DHT22;1687;49.540;8.574;2023-04-06T10:50:50;14.40;44.20
3348;DHT22;1687;49.540;8.574;2023-04-06T10:53:27;14.40;44.10
3348;DHT22;1687;49.540;8.574;2023-04-06T10:55:55;14.60;44.00
3348;DHT22;1687;49.540;8.574;2023-04-06T10:58:25;14.70;43.70
3348;DHT22;1687;49.540;8.574;2023-04-06T11:00:51;14.70;43.60
3348;DHT22;1687;49.540;8.574;2023-04-06T11:03:17;14.80;43.30
3348;DHT22;1687;49.540;8.574;2023-04-06T11:05:47;14.90;43.40
3348;DHT22;1687;49.540;8.574;2023-04-06T11:08:29;15.00;43.10
3348;DHT22;1687;49.540;8.574;2023-04-06T11:14:04;15.10;42.80
3348;DHT22;1687;49.540;8.574;2023-04-06T11:16:32;15.20;42.50
3348;DHT22;1687;49.540;8.574;2023-04-06T11:19:00;15.30;42.40
3348;DHT22;1687;49.540;8.574;2023-04-06T11:21:40;15.30;42.10
3348;DHT22;1687;49.540;8.574;2023-04-06T11:24:24;15.30;41.80
3348;DHT22;1687;49.540;8.574;2023-04-06T11:26:55;15.40;41.60
3348;DHT22;1687;49.540;8.574;2023-04-06T11:29:23;15.50;41.70
3348;DHT22;1687;49.540;8.574;2023-04-06T11:31:53;15.70;41.70
3348;DHT22;1687;49.540;8.574;2023-04-06T11:34:21;15.80;41.40
3348;DHT22;1687;49.540;8.574;2023-04-06T11:36:53;15.90;41.30
3348;DHT22;1687;49.540;8.574;2023-04-06T11:39:24;16.00;41.10
3348;DHT22;1687;49.540;8.574;2023-04-06T11:41:54;16.00;40.90
3348;DHT22;1687;49.540;8.574;2023-04-06T11:44:33;16.20;41.00
3348;DHT22;1687;49.540;8.574;2023-04-06T11:47:04;16.30;40.80
3348;DHT22;1687;49.540;8.574;2023-04-06T11:49:33;16.20;40.20
3348;DHT22;1687;49.540;8.574;2023-04-06T11:52:01;16.10;39.90
3348;DHT22;1687;49.540;8.574;2023-04-06T11:54:37;16.10;39.80
3348;DHT22;1687;49.540;8.574;2023-04-06T11:57:04;16.20;39.70
3348;DHT22;1687;49.540;8.574;2023-04-06T11:59:34;16.30;39.60
3348;DHT22;1687;49.540;8.574;2023-04-06T12:02:04;16.40;39.50
3348;DHT22;1687;49.540;8.574;2023-04-06T12:04:30;16.40;39.20
3348;DHT22;1687;49.540;8.574;2023-04-06T12:06:56;16.40;39.10
3348;DHT22;1687;49.540;8.574;2023-04-06T12:09:22;16.40;39.00
3348;DHT22;1687;49.540;8.574;2023-04-06T12:11:48;16.30;38.80
3348;DHT22;1687;49.540;8.574;2023-04-06T12:14:13;16.30;38.70
3348;DHT22;1687;49.540;8.574;2023-04-06T12:16:39;16.30;38.40
3348;DHT22;1687;49.540;8.574;2023-04-06T12:19:05;16.30;38.60
3348;DHT22;1687;49.540;8.574;2023-04-06T12:21:31;16.30;38.50
3348;DHT22;1687;49.540;8.574;2023-04-06T12:23:58;16.30;38.20
3348;DHT22;1687;49.540;8.574;2023-04-06T12:26:25;16.20;38.00
3348;DHT22;1687;49.540;8.574;2023-04-06T12:28:51;16.10;38.10
3348;DHT22;1687;49.540;8.574;2023-04-06T12:31:21;16.30;38.40
3348;DHT22;1687;49.540;8.574;2023-04-06T12:33:51;16.50;38.40
3348;DHT22;1687;49.540;8.574;2023-04-06T12:36:18;16.70;38.30
3348;DHT22;1687;49.540;8.574;2023-04-06T12:38:46;16.80;38.30
3348;DHT22;1687;49.540;8.574;2023-04-06T12:41:12;16.80;38.20
3348;DHT22;1687;49.540;8.574;2023-04-06T12:43:42;17.00;38.20
3348;DHT22;1687;49.540;8.574;2023-04-06T12:46:08;17.00;37.90
3348;DHT22;1687;49.540;8.574;2023-04-06T12:48:34;17.00;37.80
3348;DHT22;1687;49.540;8.574;2023-04-06T12:51:02;16.90;37.60
3348;DHT22;1687;49.540;8.574;2023-04-06T12:53:32;16.80;37.50
3348;DHT22;1687;49.540;8.574;2023-04-06T12:55:59;16.80;37.60
3348;DHT22;1687;49.540;8.574;2023-04-06T12:58:25;16.70;37.40
3348;DHT22;1687;49.540;8.574;2023-04-06T13:00:55;16.90;37.60
3348;DHT22;1687;49.540;8.574;2023-04-06T13:03:21;16.90;37.30
3348;DHT22;1687;49.540;8.574;2023-04-06T13:05:49;16.90;37.20
3348;DHT22;1687;49.540;8.574;2023-04-06T13:08:16;16.90;37.20
3348;DHT22;1687;49.540;8.574;2023-04-06T13:10:44;17.10;37.20
3348;DHT22;1687;49.540;8.574;2023-04-06T13:13:11;17.30;37.40
3348;DHT22;1687;49.540;8.574;2023-04-06T13:15:37;17.40;37.10
3348;DHT22;1687;49.540;8.574;2023-04-06T13:18:03;17.40;37.00
3348;DHT22;1687;49.540;8.574;2023-04-06T13:20:29;17.30;36.90
3348;DHT22;1687;49.540;8.574;2023-04-06T13:22:55;17.50;37.10
3348;DHT22;1687;49.540;8.574;2023-04-06T13:25:20;17.50;36.80
3348;DHT22;1687;49.540;8.574;2023-04-06T13:27:46;17.60;37.00
3348;DHT22;1687;49.540;8.574;2023-04-06T13:30:14;17.60;36.70
3348;DHT22;1687;49.540;8.574;2023-04-06T13:32:40;17.70;36.60
3348;DHT22;1687;49.540;8.574;2023-04-06T13:35:06;17.50;36.20
3348;DHT22;1687;49.540;8.574;2023-04-06T13:37:33;17.50;36.50
3348;DHT22;1687;49.540;8.574;2023-04-06T13:39:59;17.60;36.40
3348;DHT22;1687;49.540;8.574;2023-04-06T13:42:27;17.90;36.50
3348;DHT22;1687;49.540;8.574;2023-04-06T13:44:53;18.00;36.20
3348;DHT22;1687;49.540;8.574;2023-04-06T13:47:19;18.00;36.10
3348;DHT22;1687;49.540;8.574;2023-04-06T13:49:46;18.20;36.30
3348;DHT22;1687;49.540;8.574;2023-04-06T13:52:16;18.30;36.10
3348;DHT22;1687;49.540;8.574;2023-04-06T13:54:41;18.50;36.20
3348;DHT22;1687;49.540;8.574;2023-04-06T13:57:07;18.60;36.10
3348;DHT22;1687;49.540;8.574;2023-04-06T13:59:34;18.70;35.90
3348;DHT22;1687;49.540;8.574;2023-04-06T14:02:04;18.60;35.70
3348;DHT22;1687;49.540;8.574;2023-04-06T14:04:31;18.60;35.60
3348;DHT22;1687;49.540;8.574;2023-04-06T14:06:58;18.80;35.80
3348;DHT22;1687;49.540;8.574;2023-04-06T14:09:24;18.70;35.30
3348;DHT22;1687;49.540;8.574;2023-04-06T14:11:50;18.60;35.00
3348;DHT22;1687;49.540;8.574;2023-04-06T14:14:16;18.50;34.80
3348;DHT22;1687;49.540;8.574;2023-04-06T14:16:43;18.60;34.90
3348;DHT22;1687;49.540;8.574;2023-04-06T14:19:13;18.90;35.00
3348;DHT22;1687;49.540;8.574;2023-04-06T14:21:41;19.20;34.80
3348;DHT22;1687;49.540;8.574;2023-04-06T14:24:08;19.40;34.70
3348;DHT22;1687;49.540;8.574;2023-04-06T14:26:38;19.80;34.80
3348;DHT22;1687;49.540;8.574;2023-04-06T14:29:05;20.10;34.70
3348;DHT22;1687;49.540;8.574;2023-04-06T14:31:31;20.20;34.20
3348;DHT22;1687;49.540;8.574;2023-04-06T14:33:58;20.40;34.40
3348;DHT22;1687;49.540;8.574;2023-04-06T14:36:25;20.60;34.50
3348;DHT22;1687;49.540;8.574;2023-04-06T14:38:53;20.40;33.90
3348;DHT22;1687;49.540;8.574;2023-04-06T14:41:22;20.10;33.70
3348;DHT22;1687;49.540;8.574;2023-04-06T14:43:48;20.00;33.70
3348;DHT22;1687;49.540;8.574;2023-04-06T14:46:14;19.80;33.60
3348;DHT22;1687;49.540;8.574;2023-04-06T14:48:41;19.50;33.20
3348;DHT22;1687;49.540;8.574;2023-04-06T14:51:07;19.10;33.10
3348;DHT22;1687;49.540;8.574;2023-04-06T14:53:32;18.80;32.70
3348;DHT22;1687;49.540;8.574;2023-04-06T14:55:58;18.60;32.90
3348;DHT22;1687;49.540;8.574;2023-04-06T14:58:25;18.60;32.80
3348;DHT22;1687;49.540;8.574;2023-04-06T15:00:58;18.20;32.50
3348;DHT22;1687;49.540;8.574;2023-04-06T15:03:25;18.10;32.70
3348;DHT22;1687;49.540;8.574;2023-04-06T15:05:52;18.20;32.90
3348;DHT22;1687;49.540;8.574;2023-04-06T15:08:17;18.20;32.80
3348;DHT22;1687;49.540;8.574;2023-04-06T15:10:46;18.00;32.50
3348;DHT22;1687;49.540;8.574;2023-04-06T15:13:12;17.80;32.50
3348;DHT22;1687;49.540;8.574;2023-04-06T15:15:38;17.70;32.70
3348;DHT22;1687;49.540;8.574;2023-04-06T15:18:04;17.70;32.80
3348;DHT22;1687;49.540;8.574;2023-04-06T15:20:30;17.50;32.50
3348;DHT22;1687;49.540;8.574;2023-04-06T15:22:56;17.40;32.60
3348;DHT22;1687;49.540;8.574;2023-04-06T15:25:22;17.40;32.70
3348;DHT22;1687;49.540;8.574;2023-04-06T15:27:47;17.20;32.40
3348;DHT22;1687;49.540;8.574;2023-04-06T15:30:13;17.20;32.70
3348;DHT22;1687;49.540;8.574;2023-04-06T15:32:39;17.10;32.80
3348;DHT22;1687;49.540;8.574;2023-04-06T15:35:11;17.00;32.60
3348;DHT22;1687;49.540;8.574;2023-04-06T15:37:38;17.00;32.80
3348;DHT22;1687;49.540;8.574;2023-04-06T15:40:04;17.00;32.90
3348;DHT22;1687;49.540;8.574;2023-04-06T15:42:30;16.90;32.90
3348;DHT22;1687;49.540;8.574;2023-04-06T15:44:56;16.90;32.80
3348;DHT22;1687;49.540;8.574;2023-04-06T15:47:22;16.80;32.90
3348;DHT22;1687;49.540;8.574;2023-04-06T15:49:47;16.70;32.90
3348;DHT22;1687;49.540;8.574;2023-04-06T15:52:13;16.60;32.80
3348;DHT22;1687;49.540;8.574;2023-04-06T15:54:39;16.50;32.80
3348;DHT22;1687;49.540;8.574;2023-04-06T15:57:08;16.50;32.90
3348;DHT22;1687;49.540;8.574;2023-04-06T15:59:34;16.40;32.90
3348;DHT22;1687;49.540;8.574;2023-04-06T16:01:59;16.30;32.80
3348;DHT22;1687;49.540;8.574;2023-04-06T16:04:25;16.20;32.80
3348;DHT22;1687;49.540;8.574;2023-04-06T16:06:51;16.20;32.90
3348;DHT22;1687;49.540;8.574;2023-04-06T16:09:16;16.10;32.90
3348;DHT22;1687;49.540;8.574;2023-04-06T16:11:42;16.10;32.90